createdAt,value
2023-03-02T00:01:09.984Z,42.87
2023-03-02T00:03:37.741Z,38.63
2023-03-02T00:06:04.261Z,36.40
2023-03-02T00:08:32.051Z,38.80
2023-03-02T00:10:58.547Z,38.33
2023-03-02T00:13:24.854Z,40.70
2023-03-02T00:15:51.242Z,40.63
2023-03-02T00:18:17.717Z,43.03
2023-03-02T00:20:44.142Z,39.97
2023-03-02T00:23:10.453Z,37.60
2023-03-02T00:25:36.861Z,41.27
2023-03-02T00:28:03.411Z,39.93
2023-03-02T00:30:29.789Z,39.83
2023-03-02T00:32:58.474Z,45.47
2023-03-02T00:35:26.983Z,41.30
2023-03-02T00:37:53.393Z,41.27
2023-03-02T00:40:19.878Z,48.60
2023-03-02T00:42:46.323Z,36.27
2023-03-02T00:45:12.638Z,43.13
2023-03-02T00:47:39.868Z,42.57
2023-03-02T00:50:07.125Z,41.43
2023-03-02T00:52:33.860Z,42.17
2023-03-02T00:55:00.220Z,39.47
2023-03-02T00:57:26.579Z,43.73
2023-03-02T00:59:53.015Z,43.33
2023-03-02T01:02:21.606Z,50.73
2023-03-02T01:04:48.389Z,46.93
2023-03-02T01:07:16.334Z,52.67
2023-03-02T01:09:43.663Z,45.90
2023-03-02T01:12:11.282Z,52.27
2023-03-02T01:14:42.324Z,54.47
2023-03-02T01:17:09.871Z,48.07
2023-03-02T01:19:36.805Z,40.43
2023-03-02T01:22:03.263Z,51.00
2023-03-02T01:24:29.768Z,48.83
2023-03-02T01:26:56.287Z,49.50
2023-03-02T01:29:22.709Z,46.13
2023-03-02T01:31:49.190Z,44.77
2023-03-02T01:34:15.789Z,47.77
2023-03-02T01:36:45.482Z,46.90
2023-03-02T01:39:15.923Z,43.93
2023-03-02T01:41:43.440Z,48.53
2023-03-02T01:44:28.473Z,46.93
2023-03-02T01:46:54.792Z,41.27
2023-03-02T01:49:21.558Z,46.50
2023-03-02T01:51:48.157Z,44.03
2023-03-02T01:54:22.756Z,47.00
2023-03-02T01:56:54.150Z,47.17
2023-03-02T01:59:22.197Z,50.73
2023-03-02T02:01:50.981Z,47.70
2023-03-02T02:04:17.702Z,46.03
2023-03-02T02:06:48.576Z,43.07
2023-03-02T02:09:16.614Z,44.50
2023-03-02T02:11:43.686Z,43.97
2023-03-02T02:14:10.146Z,44.77
2023-03-02T02:16:37.371Z,47.47
2023-03-02T02:19:18.186Z,45.77
2023-03-02T02:21:44.525Z,45.27
2023-03-02T02:24:21.607Z,43.17
2023-03-02T02:26:49.946Z,49.50
2023-03-02T02:29:23.009Z,48.13
2023-03-02T02:31:52.438Z,39.83
2023-03-02T02:34:24.745Z,46.50
2023-03-02T02:36:54.060Z,44.03
2023-03-02T02:39:25.705Z,39.40
2023-03-02T02:41:54.295Z,43.03
2023-03-02T02:44:20.663Z,46.03
2023-03-02T02:46:46.974Z,43.60
2023-03-02T02:49:33.299Z,41.67
2023-03-02T02:51:59.678Z,43.37
2023-03-02T02:54:26.506Z,46.57
2023-03-02T02:56:53.463Z,44.33
2023-03-02T02:59:22.039Z,38.23
2023-03-02T03:01:49.358Z,38.40
2023-03-02T03:04:19.582Z,42.53
2023-03-02T03:06:50.223Z,42.83
2023-03-02T03:09:16.800Z,41.17
2023-03-02T03:11:44.849Z,42.50
2023-03-02T03:14:11.214Z,37.27
2023-03-02T03:16:38.552Z,41.60
2023-03-02T03:19:06.654Z,43.77
2023-03-02T03:21:33.805Z,41.20
2023-03-02T03:24:00.222Z,36.73
2023-03-02T03:26:26.548Z,35.50
2023-03-02T03:28:52.887Z,39.03
2023-03-02T03:31:19.280Z,38.43
2023-03-02T03:33:45.727Z,40.87
2023-03-02T03:36:12.325Z,40.03
2023-03-02T03:38:38.923Z,43.47
2023-03-02T03:41:05.291Z,38.53
2023-03-02T03:43:32.080Z,43.27
2023-03-02T03:45:58.542Z,39.93
2023-03-02T03:48:24.842Z,35.87
2023-03-02T03:50:51.327Z,38.97
2023-03-02T03:53:17.711Z,37.63
2023-03-02T03:55:44.089Z,38.20
2023-03-02T03:58:10.481Z,40.57
2023-03-02T04:00:36.902Z,39.67
2023-03-02T04:03:03.223Z,37.80
2023-03-02T04:05:31.570Z,42.23
2023-03-02T04:08:01.990Z,40.00
2023-03-02T04:10:28.718Z,34.23
2023-03-02T04:12:55.128Z,36.03
2023-03-02T04:15:21.599Z,36.60
2023-03-02T04:17:47.913Z,35.33
2023-03-02T04:20:16.659Z,34.67
2023-03-02T04:22:47.153Z,35.50
2023-03-02T04:25:14.605Z,37.93
2023-03-02T04:27:40.928Z,39.20
2023-03-02T04:30:08.022Z,35.90
2023-03-02T04:32:34.499Z,31.47
2023-03-02T04:35:00.821Z,33.80
2023-03-02T04:37:27.190Z,35.90
2023-03-02T04:39:53.558Z,34.33
2023-03-02T04:42:20.329Z,37.90
2023-03-02T04:44:47.049Z,32.50
2023-03-02T04:47:13.466Z,30.80
2023-03-02T04:49:39.848Z,31.53
2023-03-02T04:52:06.199Z,38.00
2023-03-02T04:54:33.670Z,37.80
2023-03-02T04:56:59.982Z,31.97
2023-03-02T04:59:27.207Z,34.63
2023-03-02T05:01:55.170Z,34.87
2023-03-02T05:04:21.941Z,31.30
2023-03-02T05:06:48.574Z,36.30
2023-03-02T05:09:15.002Z,38.10
2023-03-02T05:11:42.367Z,31.00
2023-03-02T05:14:10.000Z,30.43
2023-03-02T05:16:37.604Z,37.97
2023-03-02T05:19:05.008Z,34.30
2023-03-02T05:21:31.480Z,30.43
2023-03-02T05:23:58.302Z,28.63
2023-03-02T05:26:24.652Z,28.73
2023-03-02T05:28:53.658Z,32.00
2023-03-02T05:31:27.436Z,32.40
2023-03-02T05:33:53.747Z,27.43
2023-03-02T05:36:22.862Z,33.43
2023-03-02T05:38:49.553Z,29.00
2023-03-02T05:41:16.897Z,28.00
2023-03-02T05:43:43.423Z,29.47
2023-03-02T05:46:09.865Z,29.83
2023-03-02T05:48:36.277Z,32.40
2023-03-02T05:51:02.795Z,28.97
2023-03-02T05:53:29.118Z,29.70
2023-03-02T05:55:55.821Z,31.53
2023-03-02T05:58:22.110Z,28.03
2023-03-02T06:00:49.011Z,29.57
2023-03-02T06:03:15.881Z,28.53
2023-03-02T06:05:42.485Z,33.53
2023-03-02T06:08:09.236Z,28.47
2023-03-02T06:10:36.071Z,32.80
2023-03-02T06:13:02.398Z,28.83
2023-03-02T06:15:29.717Z,32.87
2023-03-02T06:17:56.978Z,29.00
2023-03-02T06:20:23.376Z,35.63
2023-03-02T06:22:49.893Z,32.67
2023-03-02T06:25:20.620Z,30.70
2023-03-02T06:27:51.491Z,34.80
2023-03-02T06:30:21.461Z,35.23
2023-03-02T06:32:47.823Z,34.03
2023-03-02T06:35:14.389Z,33.40
2023-03-02T06:37:43.032Z,30.27
2023-03-02T06:40:11.224Z,33.20
2023-03-02T06:42:38.303Z,33.90
2023-03-02T06:45:05.304Z,31.67
2023-03-02T06:47:33.330Z,34.53
2023-03-02T06:49:59.948Z,32.73
2023-03-02T06:52:27.480Z,31.93
2023-03-02T06:54:54.526Z,32.13
2023-03-02T06:57:20.889Z,30.50
2023-03-02T06:59:47.299Z,33.43
2023-03-02T07:02:13.669Z,32.77
2023-03-02T07:04:40.137Z,34.20
2023-03-02T07:07:06.438Z,32.30
2023-03-02T07:09:33.994Z,32.87
2023-03-02T07:12:00.397Z,39.43
2023-03-02T07:14:26.759Z,41.93
2023-03-02T07:16:56.693Z,34.47
2023-03-02T07:19:23.211Z,33.90
2023-03-02T07:21:49.793Z,32.63
2023-03-02T07:24:16.180Z,35.17
2023-03-02T07:26:42.536Z,37.63
2023-03-02T07:29:08.900Z,31.90
2023-03-02T07:31:35.512Z,36.00
2023-03-02T07:34:02.070Z,32.23
2023-03-02T07:36:28.347Z,32.83
2023-03-02T07:38:55.040Z,35.77
2023-03-02T07:41:22.728Z,35.47
2023-03-02T07:43:49.185Z,39.63
2023-03-02T07:46:19.539Z,31.93
2023-03-02T07:48:47.971Z,32.47
2023-03-02T07:51:14.377Z,36.50
2023-03-02T07:53:41.149Z,36.93
2023-03-02T07:56:09.209Z,36.63
2023-03-02T07:58:35.853Z,39.47
2023-03-02T08:01:02.298Z,34.83
2023-03-02T08:03:29.421Z,31.73
2023-03-02T08:05:55.781Z,35.00
2023-03-02T08:08:22.253Z,37.40
2023-03-02T08:10:48.582Z,36.80
2023-03-02T08:13:15.025Z,36.43
2023-03-02T08:15:41.379Z,33.50
2023-03-02T08:18:11.259Z,38.80
2023-03-02T08:20:38.029Z,33.87
2023-03-02T08:23:04.303Z,31.27
2023-03-02T08:25:30.723Z,36.57
2023-03-02T08:27:57.516Z,33.77
2023-03-02T08:30:24.111Z,32.43
2023-03-02T08:32:50.537Z,32.57
2023-03-02T08:35:22.325Z,34.23
2023-03-02T08:37:48.886Z,35.17
2023-03-02T08:40:18.171Z,34.20
2023-03-02T08:42:44.549Z,30.03
2023-03-02T08:45:11.023Z,30.47
2023-03-02T08:47:38.235Z,30.70
2023-03-02T08:50:05.289Z,30.10
2023-03-02T08:52:34.824Z,33.17
2023-03-02T08:55:03.302Z,29.30
2023-03-02T08:57:30.152Z,29.90
2023-03-02T08:59:56.577Z,34.90
2023-03-02T09:02:22.841Z,27.83
2023-03-02T09:04:49.350Z,26.93
2023-03-02T09:07:17.346Z,27.00
2023-03-02T09:09:44.069Z,26.47
2023-03-02T09:12:10.382Z,28.23
2023-03-02T09:14:46.167Z,26.70
2023-03-02T09:17:15.541Z,23.00
2023-03-02T09:19:44.302Z,26.27
2023-03-02T09:22:10.834Z,26.80
2023-03-02T09:24:37.429Z,26.10
2023-03-02T09:27:03.822Z,23.60
2023-03-02T09:29:33.413Z,24.73
2023-03-02T09:32:02.759Z,23.23
2023-03-02T09:34:29.560Z,27.37
2023-03-02T09:36:56.197Z,20.53
2023-03-02T09:39:22.737Z,24.17
2023-03-02T09:42:03.499Z,24.23
2023-03-02T09:44:32.993Z,19.97
2023-03-02T09:47:04.057Z,25.87
2023-03-02T09:49:55.466Z,19.60
2023-03-02T09:52:29.529Z,21.00
2023-03-02T09:54:57.230Z,20.97
2023-03-02T09:57:34.410Z,22.37
2023-03-02T10:00:16.535Z,21.77
2023-03-02T10:02:49.508Z,22.40
2023-03-02T10:05:21.650Z,21.07
2023-03-02T10:07:48.929Z,23.40
2023-03-02T10:10:18.421Z,22.13
2023-03-02T10:12:50.941Z,22.10
2023-03-02T10:15:23.778Z,21.23
2023-03-02T10:18:06.932Z,20.00
2023-03-02T10:20:36.466Z,19.97
2023-03-02T10:23:19.302Z,24.57
2023-03-02T10:26:01.068Z,24.93
2023-03-02T10:28:32.228Z,26.23
2023-03-02T10:31:09.745Z,19.50
2023-03-02T10:33:37.447Z,24.53
2023-03-02T10:36:05.682Z,24.03
2023-03-02T10:38:32.096Z,18.83
2023-03-02T10:41:00.678Z,21.43
2023-03-02T10:43:26.949Z,23.67
2023-03-02T10:46:09.333Z,18.80
2023-03-02T10:48:50.917Z,20.97
2023-03-02T10:51:43.313Z,21.37
2023-03-02T10:54:11.378Z,19.37
2023-03-02T10:56:38.430Z,18.50
2023-03-02T10:59:23.537Z,19.27
2023-03-02T11:01:58.479Z,22.63
2023-03-02T11:04:24.872Z,18.47
2023-03-02T11:06:54.377Z,17.70
2023-03-02T11:09:20.792Z,22.27
2023-03-02T11:11:55.476Z,19.10
2023-03-02T11:14:23.784Z,22.23
2023-03-02T11:16:51.503Z,21.17
2023-03-02T11:19:23.165Z,20.40
2023-03-02T11:21:55.661Z,23.17
2023-03-02T11:24:26.264Z,19.30
2023-03-02T11:26:56.539Z,23.00
2023-03-02T11:29:26.002Z,20.50
2023-03-02T11:31:54.911Z,20.47
2023-03-02T11:34:22.513Z,22.50
2023-03-02T11:36:53.380Z,22.57
2023-03-02T11:39:25.148Z,24.37
2023-03-02T11:41:52.232Z,18.77
2023-03-02T11:44:20.248Z,21.43
2023-03-02T11:46:51.479Z,20.57
2023-03-02T11:49:21.380Z,21.80
2023-03-02T11:51:59.048Z,21.33
2023-03-02T11:54:39.209Z,20.43
2023-03-02T11:57:05.683Z,24.47
2023-03-02T11:59:32.666Z,22.13
2023-03-02T12:02:00.617Z,21.80
2023-03-02T12:04:34.948Z,21.10
2023-03-02T12:07:02.473Z,20.07
2023-03-02T12:09:34.428Z,19.20
2023-03-02T12:12:14.939Z,19.63
2023-03-02T12:14:42.393Z,17.87
2023-03-02T12:17:17.809Z,19.97
2023-03-02T12:19:45.240Z,23.77
2023-03-02T12:22:14.535Z,23.23
2023-03-02T12:24:42.968Z,24.13
2023-03-02T12:27:15.058Z,20.13
2023-03-02T12:29:42.986Z,19.07
2023-03-02T12:32:14.131Z,22.40
2023-03-02T12:34:44.487Z,21.60
2023-03-02T12:37:16.822Z,24.00
2023-03-02T12:39:50.309Z,21.50
2023-03-02T12:42:25.903Z,23.67
2023-03-02T12:45:13.508Z,21.37
2023-03-02T12:47:44.507Z,22.17
2023-03-02T12:50:19.748Z,25.67
2023-03-02T12:52:55.993Z,26.53
2023-03-02T12:55:22.319Z,21.57
2023-03-02T12:57:54.112Z,23.17
2023-03-02T13:00:22.196Z,25.07
2023-03-02T13:02:49.900Z,18.27
2023-03-02T13:05:27.280Z,16.97
2023-03-02T13:07:53.619Z,20.03
2023-03-02T13:10:22.849Z,19.33
2023-03-02T13:12:49.284Z,20.83
2023-03-02T13:15:17.058Z,18.87
2023-03-02T13:17:44.158Z,21.00
2023-03-02T13:20:12.948Z,20.70
2023-03-02T13:22:40.606Z,17.43
2023-03-02T13:25:08.308Z,21.10
2023-03-02T13:27:34.807Z,17.17
2023-03-02T13:30:09.143Z,18.03
2023-03-02T13:32:38.879Z,17.13
2023-03-02T13:35:20.325Z,21.47
2023-03-02T13:37:46.800Z,19.43
2023-03-02T13:40:22.429Z,20.20
2023-03-02T13:42:48.909Z,18.33
2023-03-02T13:45:23.551Z,19.77
2023-03-02T13:47:49.950Z,17.67
2023-03-02T13:50:17.680Z,18.93
2023-03-02T13:52:44.026Z,17.90
2023-03-02T13:55:14.286Z,18.53
2023-03-02T13:57:41.725Z,23.50
2023-03-02T14:00:13.505Z,20.87
2023-03-02T14:02:40.763Z,23.50
2023-03-02T14:05:09.829Z,18.17
2023-03-02T14:07:36.349Z,21.17
2023-03-02T14:10:02.809Z,18.73
2023-03-02T14:12:31.188Z,21.93
2023-03-02T14:14:58.514Z,17.47
2023-03-02T14:17:25.396Z,17.87
2023-03-02T14:19:55.328Z,23.00
2023-03-02T14:22:22.332Z,21.87
2023-03-02T14:24:49.088Z,19.13
2023-03-02T14:27:16.074Z,19.77
2023-03-02T14:29:43.212Z,18.93
2023-03-02T14:32:10.521Z,20.90
2023-03-02T14:34:37.339Z,18.50
2023-03-02T14:37:08.185Z,20.40
2023-03-02T14:39:41.632Z,15.83
2023-03-02T14:42:11.980Z,18.70
2023-03-02T14:44:38.279Z,16.23
2023-03-02T14:47:04.748Z,16.17
2023-03-02T14:49:31.068Z,16.43
2023-03-02T14:52:09.057Z,22.27
2023-03-02T14:54:40.633Z,19.63
2023-03-02T14:57:13.023Z,17.77
2023-03-02T14:59:39.364Z,18.17
2023-03-02T15:02:15.903Z,19.90
2023-03-02T15:04:56.112Z,19.03
2023-03-02T15:07:22.742Z,16.23
2023-03-02T15:09:49.057Z,18.70
2023-03-02T15:12:15.361Z,15.80
2023-03-02T15:14:41.759Z,20.80
2023-03-02T15:17:08.148Z,17.50
2023-03-02T15:19:34.486Z,17.57
2023-03-02T15:22:03.798Z,17.60
2023-03-02T15:24:33.523Z,16.13
2023-03-02T15:27:00.097Z,16.20
2023-03-02T15:29:26.557Z,14.97
2023-03-02T15:31:52.989Z,19.50
2023-03-02T15:34:19.490Z,19.07
2023-03-02T15:36:45.822Z,15.40
2023-03-02T15:39:14.377Z,20.10
2023-03-02T15:41:42.411Z,18.60
2023-03-02T15:44:15.735Z,17.50
2023-03-02T15:46:42.109Z,18.97
2023-03-02T15:49:08.911Z,23.03
2023-03-02T15:51:35.308Z,20.70
2023-03-02T15:54:01.649Z,19.77
2023-03-02T15:56:32.855Z,20.50
2023-03-02T15:59:05.230Z,20.43
2023-03-02T16:01:31.643Z,20.37
2023-03-02T16:04:01.383Z,19.67
2023-03-02T16:06:27.901Z,24.27
2023-03-02T16:08:54.315Z,22.07
2023-03-02T16:11:23.376Z,22.67
2023-03-02T16:13:51.722Z,22.77
2023-03-02T16:16:19.493Z,21.13
2023-03-02T16:18:52.839Z,19.30
2023-03-02T16:21:19.262Z,21.73
2023-03-02T16:23:45.764Z,18.63
2023-03-02T16:26:14.807Z,20.77
2023-03-02T16:28:41.731Z,22.87
2023-03-02T16:31:09.991Z,17.97
2023-03-02T16:33:36.683Z,20.27
2023-03-02T16:36:03.262Z,23.40
2023-03-02T16:38:29.860Z,21.60
2023-03-02T16:40:57.225Z,22.97
2023-03-02T16:43:24.432Z,20.80
2023-03-02T16:45:51.528Z,24.57
2023-03-02T16:48:18.125Z,22.00
2023-03-02T16:50:46.153Z,15.03
2023-03-02T16:53:13.506Z,23.53
2023-03-02T16:55:39.873Z,20.53
2023-03-02T16:58:06.268Z,19.83
2023-03-02T17:00:32.586Z,20.90
2023-03-02T17:02:58.936Z,20.23
2023-03-02T17:05:25.257Z,20.77
2023-03-02T17:07:52.670Z,20.20
2023-03-02T17:10:20.400Z,20.03
2023-03-02T17:12:46.912Z,22.70
2023-03-02T17:15:14.269Z,20.67
2023-03-02T17:17:41.831Z,20.37
2023-03-02T17:20:09.140Z,19.90
2023-03-02T17:22:35.476Z,20.20
2023-03-02T17:25:04.412Z,24.63
2023-03-02T17:27:31.059Z,22.80
2023-03-02T17:29:57.464Z,19.23
2023-03-02T17:32:24.423Z,27.10
2023-03-02T17:34:50.967Z,26.07
2023-03-02T17:37:20.012Z,23.57
2023-03-02T17:39:48.581Z,22.80
2023-03-02T17:42:15.095Z,27.53
2023-03-02T17:44:41.412Z,24.17
2023-03-02T17:47:08.343Z,22.73
2023-03-02T17:49:38.134Z,25.77
2023-03-02T17:52:04.452Z,28.43
2023-03-02T17:54:30.890Z,22.37
2023-03-02T17:56:57.300Z,18.87
2023-03-02T17:59:23.679Z,21.80
2023-03-02T18:01:50.110Z,19.60
2023-03-02T18:04:16.493Z,18.83
2023-03-02T18:06:43.016Z,20.50
2023-03-02T18:09:10.182Z,18.03
2023-03-02T18:11:36.715Z,18.20
2023-03-02T18:14:03.216Z,16.77
2023-03-02T18:16:29.566Z,14.40
2023-03-02T18:18:57.210Z,14.53
2023-03-02T18:21:23.628Z,14.90
2023-03-02T18:23:51.290Z,13.43
2023-03-02T18:26:17.601Z,15.20
2023-03-02T18:28:44.117Z,16.30
2023-03-02T18:31:11.577Z,12.97
2023-03-02T18:33:38.114Z,17.13
2023-03-02T18:36:05.468Z,13.33
2023-03-02T18:38:32.767Z,14.00
2023-03-02T18:41:00.812Z,16.10
2023-03-02T18:43:27.869Z,15.87
2023-03-02T18:45:54.320Z,11.50
2023-03-02T18:48:21.034Z,12.17
2023-03-02T18:50:47.440Z,11.17
2023-03-02T18:53:13.941Z,13.20
2023-03-02T18:55:40.724Z,12.70
2023-03-02T18:58:07.526Z,11.40
2023-03-02T19:00:35.016Z,12.40
2023-03-02T19:03:01.460Z,13.87
2023-03-02T19:05:29.717Z,12.43
2023-03-02T19:07:59.000Z,10.60
2023-03-02T19:10:25.574Z,11.73
2023-03-02T19:12:51.904Z,11.87
2023-03-02T19:15:18.277Z,11.90
2023-03-02T19:17:44.617Z,12.87
2023-03-02T19:20:13.250Z,11.13
2023-03-02T19:22:39.592Z,11.57
2023-03-02T19:25:06.285Z,12.60
2023-03-02T19:27:32.626Z,12.23
2023-03-02T19:29:59.048Z,11.27
2023-03-02T19:32:25.446Z,11.03
2023-03-02T19:34:51.881Z,12.53
2023-03-02T19:37:18.265Z,10.00
2023-03-02T19:39:44.675Z,12.57
2023-03-02T19:42:11.352Z,10.33
2023-03-02T19:44:37.720Z,11.13
2023-03-02T19:47:04.584Z,10.73
2023-03-02T19:49:30.940Z,10.43
2023-03-02T19:51:59.002Z,10.03
2023-03-02T19:54:25.614Z,13.23
2023-03-02T19:56:53.913Z,13.00
2023-03-02T19:59:22.031Z,13.30
2023-03-02T20:01:49.394Z,13.93
2023-03-02T20:04:16.211Z,11.70
2023-03-02T20:06:42.605Z,16.23
2023-03-02T20:09:09.664Z,10.90
2023-03-02T20:11:36.055Z,10.83
2023-03-02T20:14:02.448Z,14.30
2023-03-02T20:16:30.124Z,15.50
2023-03-02T20:18:57.949Z,13.63
2023-03-02T20:21:26.949Z,13.50
2023-03-02T20:23:53.601Z,12.63
2023-03-02T20:26:20.514Z,14.13
2023-03-02T20:28:47.983Z,10.87
2023-03-02T20:31:15.648Z,12.10
2023-03-02T20:33:43.848Z,12.40
2023-03-02T20:36:11.773Z,12.87
2023-03-02T20:38:43.861Z,15.37
2023-03-02T20:41:11.776Z,13.27
2023-03-02T20:43:38.714Z,13.13
2023-03-02T20:46:05.685Z,14.97
2023-03-02T20:48:33.614Z,14.33
2023-03-02T20:51:00.028Z,14.10
2023-03-02T20:53:28.106Z,15.43
2023-03-02T20:55:54.507Z,11.77
2023-03-02T20:58:20.983Z,14.33
2023-03-02T21:00:48.855Z,14.40
2023-03-02T21:03:15.330Z,12.27
2023-03-02T21:05:41.761Z,15.57
2023-03-02T21:08:09.078Z,11.67
2023-03-02T21:10:36.580Z,12.40
2023-03-02T21:13:03.953Z,9.80
2023-03-02T21:15:30.541Z,13.77
2023-03-02T21:17:59.200Z,10.67
2023-03-02T21:20:26.881Z,14.13
2023-03-02T21:22:53.180Z,12.63
2023-03-02T21:25:19.750Z,12.03
2023-03-02T21:27:46.148Z,12.13
2023-03-02T21:30:15.138Z,12.27
2023-03-02T21:32:45.575Z,12.70
2023-03-02T21:35:16.270Z,10.47
2023-03-02T21:37:43.204Z,15.03
2023-03-02T21:40:13.466Z,12.60
2023-03-02T21:42:39.855Z,9.87
2023-03-02T21:45:08.921Z,9.23
2023-03-02T21:47:36.112Z,12.30
2023-03-02T21:50:02.848Z,11.50
2023-03-02T21:52:29.154Z,8.43
2023-03-02T21:54:55.475Z,13.27
2023-03-02T21:57:21.868Z,12.47
2023-03-02T21:59:48.245Z,16.33
2023-03-02T22:02:14.539Z,10.93
2023-03-02T22:04:41.674Z,14.90
2023-03-02T22:07:08.012Z,11.93
2023-03-02T22:09:34.366Z,11.57
2023-03-02T22:12:00.842Z,12.30
2023-03-02T22:14:27.144Z,11.67
2023-03-02T22:16:53.444Z,11.43
2023-03-02T22:19:27.149Z,11.77
2023-03-02T22:21:59.871Z,13.83
2023-03-02T22:24:27.819Z,17.57
2023-03-02T22:27:02.599Z,12.83
2023-03-02T22:29:31.628Z,14.20
2023-03-02T22:32:04.293Z,12.53
2023-03-02T22:34:31.037Z,13.53
2023-03-02T22:37:06.209Z,14.30
2023-03-02T22:39:33.346Z,13.93
2023-03-02T22:42:09.954Z,13.50
2023-03-02T22:44:36.284Z,14.83
2023-03-02T22:47:05.682Z,10.87
2023-03-02T22:49:32.783Z,14.23
2023-03-02T22:52:02.732Z,9.07
2023-03-02T22:54:35.997Z,12.93
2023-03-02T22:57:02.926Z,13.70
2023-03-02T22:59:35.949Z,11.57
2023-03-02T23:02:06.308Z,12.40
2023-03-02T23:04:36.702Z,15.07
2023-03-02T23:07:12.323Z,17.03
2023-03-02T23:09:38.687Z,17.30
2023-03-02T23:12:09.767Z,13.43
2023-03-02T23:14:39.333Z,13.17
2023-03-02T23:17:11.890Z,12.30
2023-03-02T23:19:38.420Z,16.57
2023-03-02T23:22:04.761Z,15.37
2023-03-02T23:24:31.123Z,15.07
2023-03-02T23:26:57.620Z,11.97
2023-03-02T23:29:23.956Z,13.90
2023-03-02T23:31:50.331Z,14.50
2023-03-02T23:34:16.920Z,15.53
2023-03-02T23:36:43.720Z,11.57
2023-03-02T23:39:10.662Z,13.40
2023-03-02T23:41:37.258Z,14.33
2023-03-02T23:44:04.763Z,12.73
2023-03-02T23:46:31.203Z,13.37
2023-03-02T23:48:57.903Z,10.97
2023-03-02T23:51:25.526Z,12.13
2023-03-02T23:53:52.531Z,13.60
2023-03-02T23:56:19.279Z,10.57
2023-03-02T23:58:45.830Z,9.17
